KMVL/MVL METAR and TAF weather

Enter ICAO airport designator
Station Type Date Time Source
KMVL METAR 2021/01/27 13:54 UTC NOAA

KMVL 271354Z AUTO 16003KT 9SM OVC042 M04/M06 A2999 RMK AO2 SNE04 SLP169 P0000 T10441056


Station Type Date Time Source
KMVL Decoded METAR 2021/01/27 13:54 UTC NOAA

MORRISVILLE STOWE STATE AIRPORT , VT, United States (KMVL) 44-32N 72-37W 223M
Jan 27, 2021 - 08:54 AM EST / 2021.01.27 1354 UTC
Wind: from the SSE (160 degrees) at 3 MPH (3 KT):0
Visibility: 9 mile(s):0
Sky conditions: overcast
Precipitation last hour: A trace
Temperature: 24.1 F (-4.4 C)
Dew Point: 21.9 F (-5.6 C)
Relative Humidity: 91%
Pressure (altimeter): 29.99 in. Hg (1015 hPa)
ob: KMVL 271354Z AUTO 16003KT 9SM OVC042 M04/M06 A2999 RMK AO2 SNE04 SLP169 P0000 T10441056
cycle: 14

Station Type Date Time Source
KMVL TAF UTC NOAA

Error!

Example: see airport list